Time;durP1;ratioP1;P1;durP2;ratioP2;P2;SDS_P1;SDS_P2;PMS_P1;PMS_P2;Temp;Humidity;BMP_temperature;BMP_pressure;BME280_temperature;BME280_humidity;BME280_pressure;Samples;Min_cycle;Max_cycle;Signal;HPM_P1;HPM_P2
2023/07/13 00:00:08;;;;;;;3.58;2.50;;;;;;;22.40;92.75;95685.59;4990374;28;20214;-89
2023/07/13 00:02:35;;;;;;;2.35;2.17;;;;;;;22.40;92.38;95671.69;5002782;28;20219;-89
2023/07/13 00:05:01;;;;;;;2.50;2.30;;;;;;;22.35;92.73;95672.41;5014168;28;20199;-88
2023/07/13 00:07:31;;;;;;;4.22;2.75;;;;;;;22.38;92.97;95677.16;5010449;28;20214;-90
2023/07/13 00:09:58;;;;;;;2.55;2.35;;;;;;;22.44;91.32;95654.41;5010403;28;20871;-88
2023/07/13 00:12:28;;;;;;;2.65;2.40;;;;;;;22.49;90.98;95649.19;5010244;28;20199;-89
2023/07/13 00:14:56;;;;;;;2.75;2.55;;;;;;;22.49;90.68;95636.09;5010313;28;20203;-88
2023/07/13 00:17:22;;;;;;;3.72;2.40;;;;;;;22.51;90.38;95623.50;5010293;28;20214;-88
2023/07/13 00:19:49;;;;;;;2.45;2.22;;;;;;;22.56;90.82;95628.78;5009941;28;20206;-89
2023/07/13 00:22:15;;;;;;;2.75;2.55;;;;;;;22.56;91.44;95646.34;5009680;28;20292;-88
2023/07/13 00:24:43;;;;;;;3.22;2.70;;;;;;;22.59;91.16;95645.84;5010003;28;20290;-88
2023/07/13 00:27:10;;;;;;;3.00;2.33;;;;;;;22.55;91.56;95648.19;5009431;28;20273;-88
2023/07/13 00:29:36;;;;;;;3.25;2.10;;;;;;;22.60;90.50;95619.38;5009712;28;20657;-88
2023/07/13 00:32:03;;;;;;;3.10;2.30;;;;;;;22.59;90.14;95622.22;5008644;28;20910;-89
2023/07/13 00:34:30;;;;;;;3.10;2.42;;;;;;;22.45;90.15;95618.44;5009719;28;20560;-89
2023/07/13 00:36:56;;;;;;;2.88;2.53;;;;;;;22.48;89.02;95612.72;5009589;28;20223;-88
2023/07/13 00:39:23;;;;;;;3.08;2.03;;;;;;;22.45;88.52;95595.63;5009356;28;20198;-89
2023/07/13 00:41:51;;;;;;;2.30;2.10;;;;;;;22.45;88.19;95600.09;5009262;28;20222;-88
2023/07/13 00:44:20;;;;;;;3.28;2.10;;;;;;;22.35;88.37;95600.78;5019217;28;20627;-89
2023/07/13 00:46:46;;;;;;;3.40;2.38;;;;;;;22.38;89.18;95629.16;5009547;28;20230;-89
2023/07/13 00:49:17;;;;;;;2.20;2.10;;;;;;;22.41;89.45;95620.78;5009257;28;20253;-89
2023/07/13 00:51:47;;;;;;;3.22;2.20;;;;;;;22.42;89.25;95613.69;5008813;28;20191;-89
2023/07/13 00:54:18;;;;;;;2.97;2.03;;;;;;;22.44;89.72;95632.63;5009283;28;20202;-89
2023/07/13 00:56:46;;;;;;;1.88;1.77;;;;;;;22.44;90.35;95641.28;5010637;28;20223;-88
2023/07/13 00:59:17;;;;;;;2.50;2.05;;;;;;;22.48;89.55;95631.09;5009555;28;20261;-88
2023/07/13 01:01:43;;;;;;;4.43;2.33;;;;;;;22.33;91.71;95653.50;5009317;28;20794;-88
2023/07/13 01:04:11;;;;;;;2.78;2.10;;;;;;;22.36;90.73;95623.34;5012878;28;20221;-88
2023/07/13 01:06:39;;;;;;;3.42;2.60;;;;;;;22.34;91.06;95628.84;5029144;28;20222;-89
2023/07/13 01:09:09;;;;;;;3.28;2.30;;;;;;;22.40;90.08;95614.75;5017831;28;20207;-88
2023/07/13 01:11:35;;;;;;;2.63;2.05;;;;;;;22.37;90.77;95619.69;5009089;28;20490;-88
2023/07/13 01:14:02;;;;;;;2.25;2.05;;;;;;;22.40;90.50;95601.63;5009627;28;20207;-89
2023/07/13 01:16:32;;;;;;;2.47;2.28;;;;;;;22.45;90.03;95602.72;5009247;28;20318;-89
2023/07/13 01:19:01;;;;;;;2.42;2.10;;;;;;;22.47;90.33;95604.06;5009597;28;20591;-90
2023/07/13 01:21:31;;;;;;;3.15;1.98;;;;;;;22.47;89.32;95579.63;5009505;28;20206;-89
2023/07/13 01:23:57;;;;;;;2.60;2.40;;;;;;;22.47;88.82;95564.69;5008462;28;20715;-89
2023/07/13 01:26:23;;;;;;;1.75;1.65;;;;;;;22.47;88.54;95563.91;5009261;28;20218;-89
2023/07/13 01:28:50;;;;;;;2.30;2.10;;;;;;;22.51;88.14;95551.84;5009266;28;20680;-89
2023/07/13 01:31:16;;;;;;;2.60;2.20;;;;;;;22.52;87.68;95548.97;5008021;28;20210;-88
2023/07/13 01:33:43;;;;;;;2.30;2.00;;;;;;;22.53;88.25;95561.03;5008743;28;20207;-89
2023/07/13 01:36:11;;;;;;;2.10;2.00;;;;;;;22.53;88.36;95561.03;5009105;28;20195;-89
2023/07/13 01:38:39;;;;;;;3.10;2.10;;;;;;;22.49;88.28;95556.56;5008851;28;20195;-89
2023/07/13 01:41:05;;;;;;;2.33;2.13;;;;;;;22.47;88.30;95548.94;5009121;28;20202;-89
2023/07/13 01:43:32;;;;;;;2.88;1.95;;;;;;;22.50;88.58;95566.81;5012199;28;20577;-89
2023/07/13 01:45:58;;;;;;;3.47;2.10;;;;;;;22.46;89.39;95589.34;5008742;28;20209;-89
2023/07/13 01:48:25;;;;;;;2.88;2.15;;;;;;;22.46;91.33;95615.59;5009025;28;20283;-89
2023/07/13 01:50:51;;;;;;;2.88;2.05;;;;;;;22.32;93.85;95656.41;5008877;28;20199;-89
2023/07/13 01:53:18;;;;;;;3.80;2.30;;;;;;;22.24;94.57;95673.38;5008628;28;20199;-89
2023/07/13 01:55:45;;;;;;;2.95;2.35;;;;;;;22.23;95.02;95676.22;5009102;28;20891;-89
2023/07/13 01:58:12;;;;;;;4.32;2.65;;;;;;;22.19;95.29;95680.38;5009138;28;20230;-89
2023/07/13 02:00:38;;;;;;;4.55;2.78;;;;;;;22.19;94.72;95681.19;5009170;28;20206;-89
2023/07/13 02:03:05;;;;;;;3.67;2.53;;;;;;;22.20;94.24;95663.59;5008738;28;20222;-90
2023/07/13 02:05:31;;;;;;;3.38;2.55;;;;;;;22.15;94.08;95661.72;5013044;28;20210;-89
2023/07/13 02:07:58;;;;;;;3.33;2.53;;;;;;;22.11;95.26;95688.69;5011422;28;20223;-90
2023/07/13 02:10:25;;;;;;;4.20;2.50;;;;;;;22.15;94.83;95672.22;5013214;28;20741;-89
2023/07/13 02:12:53;;;;;;;4.30;2.60;;;;;;;22.22;93.90;95670.19;5012667;28;20567;-89
2023/07/13 02:15:19;;;;;;;4.40;2.67;;;;;;;22.23;93.85;95660.50;5013150;28;20217;-89
2023/07/13 02:17:45;;;;;;;5.13;2.95;;;;;;;22.24;93.35;95647.13;5012607;28;20230;-89
2023/07/13 02:20:12;;;;;;;3.70;2.85;;;;;;;22.21;93.69;95655.50;5012720;28;20714;-89
2023/07/13 02:22:39;;;;;;;2.78;2.58;;;;;;;22.18;93.81;95657.81;5012120;28;20203;-90
2023/07/13 02:25:06;;;;;;;3.15;2.65;;;;;;;22.13;94.20;95669.03;5012172;28;20675;-89
2023/07/13 02:27:32;;;;;;;4.07;2.70;;;;;;;22.17;94.52;95680.63;5012196;28;20281;-89
2023/07/13 02:30:00;;;;;;;4.45;2.60;;;;;;;22.21;94.36;95684.34;5012439;28;20634;-89
2023/07/13 02:32:27;;;;;;;6.10;2.65;;;;;;;22.21;94.46;95697.47;5011020;28;20195;-88
2023/07/13 02:34:53;;;;;;;3.67;2.50;;;;;;;22.22;95.34;95706.91;5012156;28;20721;-89
2023/07/13 02:37:21;;;;;;;3.08;2.72;;;;;;;22.22;94.42;95709.53;5011879;28;20250;-89
2023/07/13 02:39:47;;;;;;;3.85;2.80;;;;;;;22.23;94.80;95719.00;5011486;28;20218;-88
2023/07/13 02:42:14;;;;;;;4.70;3.00;;;;;;;22.24;94.83;95728.44;5011443;28;20901;-89
2023/07/13 02:44:40;;;;;;;3.20;3.00;;;;;;;22.14;96.95;95753.75;5022520;28;20210;-89
2023/07/13 02:47:08;;;;;;;4.28;3.20;;;;;;;22.14;96.18;95751.13;5011488;28;20727;-89
2023/07/13 02:49:35;;;;;;;3.63;3.33;;;;;;;22.09;97.01;95753.72;5011488;28;20206;-89
2023/07/13 02:52:02;;;;;;;4.53;3.35;;;;;;;21.89;97.51;95764.72;5010512;28;20195;-89
2023/07/13 02:54:29;;;;;;;5.32;3.13;;;;;;;21.75;95.91;95756.38;5010504;28;20218;-89
2023/07/13 02:56:55;;;;;;;3.78;3.30;;;;;;;21.67;95.63;95741.88;5010490;28;20219;-88
2023/07/13 02:59:21;;;;;;;4.30;3.10;;;;;;;21.63;97.60;95760.94;4997617;28;20199;-89
2023/07/13 03:01:48;;;;;;;7.13;3.30;;;;;;;21.60;98.38;95779.78;4990670;28;20548;-88
2023/07/13 03:04:19;;;;;;;4.00;3.38;;;;;;;21.61;97.18;95750.72;5000862;28;20229;-89
2023/07/13 03:06:46;;;;;;;3.20;2.90;;;;;;;21.63;95.54;95730.31;5030739;28;20473;-89
2023/07/13 03:09:13;;;;;;;3.85;3.10;;;;;;;21.65;94.71;95717.75;5010857;28;20199;-88
2023/07/13 03:11:39;;;;;;;4.43;3.28;;;;;;;21.73;95.80;95739.34;5010850;28;20289;-88
2023/07/13 03:14:05;;;;;;;5.32;3.15;;;;;;;21.72;94.17;95728.06;5010416;28;20657;-88
2023/07/13 03:16:32;;;;;;;3.38;3.05;;;;;;;21.66;93.64;95729.81;5010185;28;20229;-88
2023/07/13 03:19:00;;;;;;;3.38;2.63;;;;;;;21.52;94.29;95736.44;5009203;28;20203;-89
2023/07/13 03:21:28;;;;;;;4.75;3.10;;;;;;;21.49;94.31;95728.28;5010630;28;20198;-89
2023/07/13 03:23:54;;;;;;;3.40;2.75;;;;;;;21.45;95.00;95729.78;5009681;28;20230;-88
2023/07/13 03:26:21;;;;;;;3.70;3.20;;;;;;;21.42;94.24;95735.50;5011371;28;20201;-89
2023/07/13 03:28:48;;;;;;;3.42;2.78;;;;;;;21.41;94.43;95726.06;5010731;28;20222;-89
2023/07/13 03:31:16;;;;;;;2.95;2.70;;;;;;;21.44;94.14;95715.88;5009464;28;20206;-89
2023/07/13 03:33:43;;;;;;;4.50;3.13;;;;;;;21.48;93.70;95714.38;5009935;28;20201;-89
2023/07/13 03:36:14;;;;;;;4.03;2.70;;;;;;;21.47;91.76;95704.94;5010147;28;20361;-89
2023/07/13 03:38:42;;;;;;;4.45;2.90;;;;;;;21.49;92.77;95712.56;5009584;28;20194;-89
2023/07/13 03:41:09;;;;;;;4.70;3.03;;;;;;;21.55;92.64;95712.34;5008711;28;20199;-89
2023/07/13 03:43:35;;;;;;;4.45;2.90;;;;;;;21.53;93.15;95722.31;5010535;28;20214;-89
2023/07/13 03:46:01;;;;;;;4.07;2.65;;;;;;;21.52;90.52;95680.63;5010441;28;20203;-90
2023/07/13 03:48:28;;;;;;;4.40;2.80;;;;;;;21.48;90.48;95682.16;5010303;28;20203;-89
2023/07/13 03:50:54;;;;;;;3.45;2.17;;;;;;;21.49;90.65;95683.72;5010542;28;20218;-89
2023/07/13 03:53:21;;;;;;;3.25;2.47;;;;;;;21.42;89.59;95665.56;5009625;28;20238;-90
2023/07/13 03:55:48;;;;;;;3.05;2.30;;;;;;;21.44;89.02;95653.00;5009972;28;20206;-89
2023/07/13 03:58:33;;;;;;;2.80;2.60;;;;;;;21.46;88.88;95650.16;5009878;28;20241;-89
2023/07/13 04:01:00;;;;;;;2.95;2.33;;;;;;;21.50;89.50;95659.13;5010426;28;20198;-89
2023/07/13 04:03:28;;;;;;;2.70;2.20;;;;;;;21.46;88.12;95647.53;5009472;28;20274;-89
2023/07/13 04:05:59;;;;;;;2.65;2.25;;;;;;;21.39;87.33;95639.84;5017682;28;20226;-89
2023/07/13 04:08:26;;;;;;;2.78;2.50;;;;;;;21.28;87.66;95641.53;5010059;28;20300;-88
2023/07/13 04:10:53;;;;;;;2.55;2.30;;;;;;;21.26;89.01;95669.81;5009370;28;20206;-87
2023/07/13 04:13:20;;;;;;;2.97;2.53;;;;;;;21.26;90.23;95688.13;5011226;28;20695;-87
2023/07/13 04:15:46;;;;;;;3.17;2.58;;;;;;;21.31;90.04;95693.44;5009659;28;20202;-88
2023/07/13 04:18:16;;;;;;;2.88;2.30;;;;;;;21.32;89.45;95679.31;5009641;28;20269;-88
2023/07/13 04:20:42;;;;;;;3.75;2.53;;;;;;;21.34;89.49;95689.56;5009200;28;20199;-89
2023/07/13 04:23:09;;;;;;;3.75;2.30;;;;;;;21.36;88.76;95675.16;5008759;28;20745;-87
2023/07/13 04:25:35;;;;;;;2.80;2.60;;;;;;;21.32;88.93;95670.69;5009312;28;20199;-89
2023/07/13 04:28:04;;;;;;;4.07;2.33;;;;;;;21.32;89.45;95687.19;5007472;28;20233;-87
2023/07/13 04:30:31;;;;;;;3.65;2.60;;;;;;;21.34;89.48;95695.59;5000864;28;20810;-88
2023/07/13 04:32:58;;;;;;;2.20;2.00;;;;;;;21.40;89.17;95685.16;5009282;28;20239;-88
2023/07/13 04:35:24;;;;;;;3.50;2.30;;;;;;;21.37;89.74;95694.28;5009602;28;20198;-88
2023/07/13 04:37:51;;;;;;;2.75;2.50;;;;;;;21.38;89.25;95690.66;5008956;28;20269;-89
2023/07/13 04:40:18;;;;;;;3.70;2.20;;;;;;;21.37;89.15;95699.53;5009645;28;20668;-89
2023/07/13 04:42:44;;;;;;;4.90;2.40;;;;;;;21.35;89.74;95704.25;5009287;28;20207;-89
2023/07/13 04:45:13;;;;;;;3.25;2.25;;;;;;;21.35;88.14;95678.06;5007715;28;20785;-89
2023/07/13 04:47:40;;;;;;;2.88;2.58;;;;;;;21.35;87.82;95676.22;5009576;28;20219;-89
2023/07/13 04:50:08;;;;;;;3.60;2.38;;;;;;;21.38;88.14;95682.78;5009556;28;20326;-91
2023/07/13 04:52:34;;;;;;;4.88;2.58;;;;;;;21.39;87.57;95676.50;5009601;28;20209;-89
2023/07/13 04:55:01;;;;;;;3.33;2.67;;;;;;;21.41;88.19;95689.38;5010023;28;20211;-90
2023/07/13 04:57:28;;;;;;;3.05;2.10;;;;;;;21.42;88.40;95694.38;5008867;28;20230;-90
2023/07/13 04:59:54;;;;;;;3.03;2.47;;;;;;;21.39;88.59;95700.09;5006910;28;20206;-90
2023/07/13 05:02:23;;;;;;;2.20;2.00;;;;;;;21.39;88.49;95697.47;5008124;28;20623;-89
2023/07/13 05:04:50;;;;;;;4.55;2.60;;;;;;;21.39;88.67;95707.94;5018486;28;20214;-89
2023/07/13 05:07:16;;;;;;;3.35;2.80;;;;;;;21.33;88.95;95712.34;5010157;28;20966;-89
2023/07/13 05:09:43;;;;;;;2.92;2.63;;;;;;;21.31;90.11;95737.97;5009832;28;20202;-88
2023/07/13 05:12:10;;;;;;;4.95;2.95;;;;;;;21.36;90.73;95750.34;5008945;28;20218;-88
2023/07/13 05:14:36;;;;;;;7.15;3.45;;;;;;;21.30;90.82;95743.47;5009703;28;20891;-88
2023/07/13 05:17:03;;;;;;;4.93;2.85;;;;;;;21.31;90.87;95734.56;5006894;28;20227;-90
2023/07/13 05:19:31;;;;;;;15.68;14.02;;;;;;;21.27;90.94;95741.31;5008828;28;20214;-89
2023/07/13 05:21:57;;;;;;;15.57;13.98;;;;;;;21.31;90.20;95734.56;5009761;28;20229;-89
2023/07/13 05:24:23;;;;;;;12.18;6.40;;;;;;;21.13;93.16;95769.63;5009095;28;20773;-88
2023/07/13 05:26:50;;;;;;;4.43;3.17;;;;;;;21.13;92.00;95769.63;5009575;28;20222;-88
2023/07/13 05:29:16;;;;;;;11.57;10.50;;;;;;;21.16;92.86;95778.84;5009773;28;20218;-89
2023/07/13 05:31:43;;;;;;;9.73;8.82;;;;;;;21.23;90.85;95746.22;5007320;28;20630;-88
2023/07/13 05:34:09;;;;;;;4.22;3.30;;;;;;;21.24;88.56;95715.59;5008477;28;20214;-89
2023/07/13 05:36:37;;;;;;;2.53;2.30;;;;;;;21.27;88.63;95709.88;5009217;28;20227;-89
2023/07/13 05:39:04;;;;;;;2.95;2.28;;;;;;;21.26;89.02;95718.78;5008961;28;20571;-89
2023/07/13 05:41:36;;;;;;;2.92;2.53;;;;;;;21.29;89.39;95726.94;5008938;28;20199;-89
2023/07/13 05:44:04;;;;;;;3.63;2.80;;;;;;;21.36;89.29;95729.38;5010133;28;20227;-89
2023/07/13 05:46:31;;;;;;;4.68;2.95;;;;;;;21.43;90.13;95745.75;5013201;28;20850;-90
2023/07/13 05:48:57;;;;;;;5.45;3.17;;;;;;;21.51;90.20;95744.53;5012688;28;20241;-89
2023/07/13 05:51:24;;;;;;;5.50;2.92;;;;;;;21.59;89.45;95731.81;5012441;28;20203;-88
2023/07/13 05:53:52;;;;;;;3.25;2.20;;;;;;;21.60;90.47;95748.31;5012521;28;20237;-89
2023/07/13 05:56:18;;;;;;;3.95;2.55;;;;;;;21.62;88.23;95720.06;5012353;28;20199;-88
2023/07/13 05:58:45;;;;;;;2.72;2.40;;;;;;;21.60;87.60;95712.44;5011817;28;20199;-89
2023/07/13 06:01:13;;;;;;;3.60;2.35;;;;;;;21.59;87.66;95692.50;5012146;28;20210;-89
2023/07/13 06:03:41;;;;;;;3.00;2.10;;;;;;;21.64;87.81;95712.75;5010956;28;20226;-88
2023/07/13 06:06:10;;;;;;;2.75;2.53;;;;;;;21.64;87.95;95713.53;5013193;28;20217;-88
2023/07/13 06:08:36;;;;;;;4.35;2.95;;;;;;;21.67;88.92;95731.41;5012812;28;20229;-89
2023/07/13 06:11:06;;;;;;;4.78;2.90;;;;;;;21.74;88.63;95722.59;5012535;28;20202;-87
2023/07/13 06:13:33;;;;;;;3.58;2.60;;;;;;;21.75;86.91;95708.41;5012484;28;20241;-88
2023/07/13 06:15:59;;;;;;;4.10;2.92;;;;;;;21.80;88.33;95724.22;5012440;28;20624;-87
2023/07/13 06:18:26;;;;;;;2.95;2.63;;;;;;;21.90;88.78;95751.38;5010266;28;20229;-89
2023/07/13 06:20:52;;;;;;;3.60;2.60;;;;;;;;;;5012390;28;20258;-88
2023/07/13 06:23:18;;;;;;;5.18;2.40;;;;;;;22.04;87.06;95715.91;5012053;28;20210;-88
2023/07/13 06:25:45;;;;;;;2.70;2.38;;;;;;;22.04;85.53;95688.88;5011522;28;20215;-89
2023/07/13 06:28:13;;;;;;;3.35;2.40;;;;;;;21.96;82.02;95616.66;5011843;28;20234;-89
2023/07/13 06:30:40;;;;;;;3.53;2.40;;;;;;;22.01;82.09;95624.59;5011187;28;20214;-89
2023/07/13 06:33:06;;;;;;;2.75;2.45;;;;;;;22.07;82.21;95625.47;5011503;28;20241;-90
2023/07/13 06:35:33;;;;;;;3.13;2.40;;;;;;;22.03;81.59;95627.78;5010371;28;20232;-88
2023/07/13 06:38:00;;;;;;;5.07;2.65;;;;;;;22.04;79.86;95590.03;5011737;28;20262;-88
2023/07/13 06:40:28;;;;;;;2.88;2.13;;;;;;;22.02;80.80;95610.47;5011395;28;20199;-89
2023/07/13 06:42:55;;;;;;;2.92;2.13;;;;;;;22.02;79.40;95594.72;5011235;28;20210;-89
2023/07/13 06:45:23;;;;;;;4.35;2.53;;;;;;;21.95;80.96;95630.00;5011570;28;20313;-88
2023/07/13 06:47:49;;;;;;;5.57;2.40;;;;;;;21.90;80.04;95607.16;5011530;28;20598;-88
2023/07/13 06:50:16;;;;;;;4.82;2.33;;;;;;;21.88;78.18;95579.63;5009923;28;20230;-88
2023/07/13 06:52:42;;;;;;;3.70;1.98;;;;;;;21.85;77.26;95561.75;5010925;28;20599;-89
2023/07/13 06:55:09;;;;;;;3.30;2.30;;;;;;;21.79;76.87;95562.72;4999399;28;20199;-88
2023/07/13 06:57:36;;;;;;;2.60;2.00;;;;;;;21.86;79.71;95606.06;4993600;28;20697;-87
2023/07/13 07:00:02;;;;;;;4.90;2.25;;;;;;;21.91;79.08;95598.28;5010630;28;20207;-88
2023/07/13 07:02:30;;;;;;;2.88;2.38;;;;;;;21.97;78.77;95597.25;5010891;28;20226;-89
2023/07/13 07:04:56;;;;;;;3.15;2.33;;;;;;;22.05;78.89;95609.19;5021676;28;20233;-89
2023/07/13 07:07:25;;;;;;;3.85;2.17;;;;;;;22.05;79.95;95633.56;5018218;28;20218;-88
2023/07/13 07:09:51;;;;;;;3.25;2.20;;;;;;;22.12;80.11;95629.97;5010630;28;20635;-88
2023/07/13 07:12:17;;;;;;;4.25;2.00;;;;;;;22.13;79.75;95624.44;5011441;28;20230;-88
2023/07/13 07:14:44;;;;;;;2.97;2.60;;;;;;;22.06;79.91;95644.84;5011562;28;20206;-89
2023/07/13 07:17:10;;;;;;;4.95;2.40;;;;;;;21.93;79.47;95625.03;5011070;28;20227;-88
2023/07/13 07:19:38;;;;;;;3.72;2.28;;;;;;;21.85;79.40;95614.97;5011155;28;20211;-88
2023/07/13 07:22:05;;;;;;;4.25;2.22;;;;;;;21.79;80.01;95617.78;5011191;28;20199;-88
2023/07/13 07:24:31;;;;;;;2.92;2.10;;;;;;;21.86;80.61;95636.75;5009348;28;20288;-89
2023/07/13 07:26:57;;;;;;;4.40;2.30;;;;;;;21.96;79.45;95615.84;5011404;28;20246;-89
2023/07/13 07:29:26;;;;;;;4.50;2.40;;;;;;;21.99;79.41;95623.22;5011328;28;20214;-88
2023/07/13 07:31:52;;;;;;;3.22;2.17;;;;;;;22.03;78.42;95612.03;5010127;28;20210;-88
2023/07/13 07:34:19;;;;;;;6.22;2.78;;;;;;;22.10;77.50;95593.50;5011691;28;20203;-89
2023/07/13 07:36:47;;;;;;;3.92;2.47;;;;;;;22.08;77.60;95592.94;5011112;28;20222;-89
2023/07/13 07:39:13;;;;;;;3.80;2.08;;;;;;;22.03;77.56;95603.38;5009406;28;20198;-89
2023/07/13 07:41:40;;;;;;;2.53;2.33;;;;;;;21.98;76.19;95574.44;5010174;28;20210;-88
2023/07/13 07:44:07;;;;;;;3.55;2.42;;;;;;;22.03;76.65;95587.66;5011404;28;20211;-88
2023/07/13 07:46:33;;;;;;;5.07;2.28;;;;;;;21.90;77.17;95591.44;5011278;28;20306;-89
2023/07/13 07:49:00;;;;;;;3.35;2.30;;;;;;;21.92;77.35;95599.06;5011343;28;20268;-90
2023/07/13 07:51:26;;;;;;;4.72;2.75;;;;;;;21.86;77.89;95628.88;5011225;28;20213;-89
2023/07/13 07:53:55;;;;;;;4.20;2.30;;;;;;;21.88;79.76;95663.50;5010698;28;20202;-89
2023/07/13 07:56:21;;;;;;;6.05;2.20;;;;;;;21.80;80.92;95693.56;5009285;28;20210;-89
2023/07/13 07:58:48;;;;;;;4.28;2.60;;;;;;;21.78;80.66;95687.75;5012449;28;20206;-89
2023/07/13 08:01:15;;;;;;;4.85;2.40;;;;;;;21.79;76.92;95620.41;5010622;28;20207;-89
2023/07/13 08:03:42;;;;;;;4.05;2.22;;;;;;;21.84;75.25;95575.91;5011295;28;20203;-88
2023/07/13 08:06:08;;;;;;;2.80;2.40;;;;;;;21.79;73.74;95533.91;5029272;28;20225;-89
2023/07/13 08:08:35;;;;;;;2.22;1.83;;;;;;;21.77;73.99;95549.88;5030590;28;20618;-89
2023/07/13 08:11:07;;;;;;;3.35;2.25;;;;;;;21.64;72.88;95529.31;5025547;28;20198;-89
2023/07/13 08:13:33;;;;;;;4.88;2.40;;;;;;;21.63;73.39;95546.06;5010230;28;20741;-89
2023/07/13 08:16:00;;;;;;;4.65;2.22;;;;;;;21.61;73.91;95553.38;5010225;28;20203;-88
2023/07/13 08:18:27;;;;;;;3.92;2.20;;;;;;;21.58;74.68;95569.59;5010552;28;20227;-88
2023/07/13 08:20:56;;;;;;;2.42;2.10;;;;;;;21.59;74.14;95560.69;5010934;28;20235;-88
2023/07/13 08:23:22;;;;;;;4.60;2.28;;;;;;;21.60;73.39;95549.97;5010143;28;20206;-90
2023/07/13 08:25:51;;;;;;;7.00;2.55;;;;;;;21.46;73.30;95540.13;5011552;28;20233;-89
2023/07/13 08:28:19;;;;;;;3.25;2.25;;;;;;;21.50;72.68;95536.78;5008376;28;20231;-88
2023/07/13 08:30:48;;;;;;;2.38;2.17;;;;;;;21.50;72.46;95528.91;5009007;28;20290;-89
2023/07/13 08:33:15;;;;;;;2.67;2.22;;;;;;;21.54;70.91;95495.16;5009809;28;20219;-89
2023/07/13 08:35:41;;;;;;;3.67;2.20;;;;;;;21.51;69.42;95458.97;5009785;28;20203;-88
2023/07/13 08:38:08;;;;;;;5.10;1.95;;;;;;;21.55;69.93;95467.91;5009392;28;20221;-89
2023/07/13 08:40:35;;;;;;;2.33;2.00;;;;;;;21.60;68.65;95432.03;5009506;28;20199;-88
2023/07/13 08:43:01;;;;;;;4.80;2.00;;;;;;;21.67;68.27;95437.09;5008659;28;20221;-90
2023/07/13 08:45:39;;;;;;;6.32;2.20;;;;;;;21.77;68.18;95439.00;5008643;28;20229;-89
2023/07/13 08:48:11;;;;;;;4.72;2.05;;;;;;;21.88;67.55;95422.31;5010400;28;20289;-89
2023/07/13 08:50:49;;;;;;;3.53;2.20;;;;;;;21.91;65.23;95361.53;5010114;28;20199;-89
2023/07/13 08:53:17;;;;;;;5.00;1.80;;;;;;;21.94;64.02;95321.69;5015453;28;20637;-89
2023/07/13 08:55:44;;;;;;;3.80;1.80;;;;;;;21.91;64.08;95311.72;5009976;28;20202;-88
2023/07/13 08:58:13;;;;;;;4.30;1.63;;;;;;;21.96;62.71;95269.78;5009247;28;20226;-88
2023/07/13 09:00:50;;;;;;;3.67;2.10;;;;;;;21.93;63.32;95294.69;5008305;28;20207;-88
2023/07/13 09:03:23;;;;;;;4.35;1.70;;;;;;;21.95;61.73;95221.00;5009873;28;20217;-89
2023/07/13 09:05:55;;;;;;;3.72;1.95;;;;;;;21.91;62.43;95262.69;5027611;28;20218;-89
2023/07/13 09:08:46;;;;;;;4.53;1.98;;;;;;;21.91;61.93;95240.94;5029369;28;20276;-89
2023/07/13 09:11:24;;;;;;;3.75;1.88;;;;;;;21.96;61.44;95219.97;5028897;28;20230;-88
2023/07/13 09:14:07;;;;;;;6.95;2.22;;;;;;;22.02;61.13;95225.00;5029259;28;20217;-90
2023/07/13 09:16:36;;;;;;;2.78;2.10;;;;;;;21.97;61.04;95196.13;5015634;28;20734;-89
2023/07/13 09:19:14;;;;;;;4.20;1.85;;;;;;;22.08;61.12;95217.19;5004996;28;20199;-89
2023/07/13 09:21:45;;;;;;;5.50;2.50;;;;;;;22.12;61.74;95244.47;4993499;28;20199;-89
2023/07/13 09:24:37;;;;;;;3.05;1.80;;;;;;;22.14;60.59;95210.88;4993802;28;20271;-89
2023/07/13 09:27:10;;;;;;;3.35;1.70;;;;;;;22.19;61.69;95232.66;5008020;28;20226;-88
2023/07/13 09:29:43;;;;;;;6.60;1.85;;;;;;;22.31;59.74;95172.91;5012855;28;20198;-89
2023/07/13 09:32:13;;;;;;;3.83;1.70;;;;;;;22.36;59.99;95172.91;5010979;28;20831;-88
2023/07/13 09:34:40;;;;;;;4.40;1.75;;;;;;;22.38;59.81;95168.19;5012335;28;20198;-88
2023/07/13 09:37:06;;;;;;;3.17;1.60;;;;;;;22.40;59.26;95158.22;5004548;28;20214;-88
2023/07/13 09:39:37;;;;;;;4.20;1.73;;;;;;;22.41;58.63;95135.41;5007772;28;20676;-88
2023/07/13 09:42:16;;;;;;;4.20;1.65;;;;;;;22.36;57.36;95064.56;5005367;28;20198;-88
2023/07/13 09:44:53;;;;;;;2.13;1.40;;;;;;;22.39;54.58;94980.88;5012899;28;20203;-89
2023/07/13 09:47:23;;;;;;;1.70;1.60;;;;;;;22.50;55.94;95002.66;5011940;28;20226;-88
2023/07/13 09:49:56;;;;;;;1.50;1.40;;;;;;;22.62;55.15;94984.78;5010441;28;20206;-88
2023/07/13 09:52:23;;;;;;;3.10;1.60;;;;;;;22.83;55.76;95016.25;5012480;28;20778;-88
2023/07/13 09:54:51;;;;;;;4.78;1.80;;;;;;;22.98;56.03;95018.84;5013188;28;20242;-88
2023/07/13 09:57:19;;;;;;;3.58;1.75;;;;;;;23.18;55.17;94989.88;5012921;28;20222;-88
2023/07/13 09:59:48;;;;;;;5.22;1.95;;;;;;;23.41;56.11;95019.97;5013207;28;20214;-88
2023/07/13 10:02:33;;;;;;;2.53;1.80;;;;;;;23.40;54.52;94961.38;5012722;28;20452;-88
2023/07/13 10:05:03;;;;;;;3.80;1.90;;;;;;;23.25;54.49;94940.47;5011154;28;20278;-89
2023/07/13 10:07:30;;;;;;;4.50;1.52;;;;;;;23.26;53.10;94892.13;5012934;28;20700;-89
2023/07/13 10:10:00;;;;;;;2.95;1.70;;;;;;;23.30;53.41;94906.25;5013184;28;20206;-89
2023/07/13 10:12:28;;;;;;;2.40;1.55;;;;;;;23.18;51.61;94831.50;5012706;28;20222;-89
2023/07/13 10:14:57;;;;;;;3.55;1.45;;;;;;;23.23;51.61;94826.22;5012776;28;20237;-89
2023/07/13 10:17:31;;;;;;;1.95;1.70;;;;;;;23.41;51.81;94851.81;5011867;28;20215;-89
2023/07/13 10:20:04;;;;;;;2.25;1.40;;;;;;;23.61;54.00;94948.94;5011469;28;20236;-89
2023/07/13 10:22:38;;;;;;;4.15;1.45;;;;;;;23.57;52.81;94905.84;5010020;28;20301;-89
2023/07/13 10:25:18;;;;;;;2.42;1.67;;;;;;;23.59;53.63;94937.91;5012233;28;20652;-88
2023/07/13 10:27:45;;;;;;;2.38;1.75;;;;;;;23.77;53.01;94918.84;4991695;28;20269;-90
2023/07/13 10:30:16;;;;;;;5.32;1.73;;;;;;;23.87;51.90;94877.72;4992300;28;20207;-88
2023/07/13 10:32:44;;;;;;;1.63;1.40;;;;;;;23.94;50.14;94771.19;4992146;28;20625;-89
2023/07/13 10:35:13;;;;;;;1.83;1.55;;;;;;;24.22;50.00;94766.91;4993000;28;20655;-89
2023/07/13 10:37:48;;;;;;;3.05;1.77;;;;;;;24.34;50.04;94774.44;5005779;28;20249;-89
2023/07/13 10:40:19;;;;;;;2.78;1.60;;;;;;;24.33;49.95;94749.19;5011750;28;20213;-89
2023/07/13 10:42:49;;;;;;;4.13;1.80;;;;;;;24.19;50.02;94733.28;5010658;28;20211;-88
2023/07/13 10:45:18;;;;;;;4.38;1.65;;;;;;;24.16;50.91;94781.19;5010772;28;20591;-89
2023/07/13 10:47:47;;;;;;;4.25;1.60;;;;;;;24.06;50.73;94808.38;5011012;28;20226;-88
2023/07/13 10:50:20;;;;;;;6.50;2.08;;;;;;;24.14;51.40;94820.13;5010961;28;20206;-90
2023/07/13 10:52:49;;;;;;;2.45;1.70;;;;;;;24.48;51.39;94840.28;5008043;28;20206;-89
2023/07/13 10:55:36;;;;;;;2.92;1.60;;;;;;;24.61;51.18;94850.94;5012294;28;20630;-89
2023/07/13 10:58:11;;;;;;;1.98;1.60;;;;;;;24.52;51.78;94857.88;5014309;28;20293;-89
2023/07/13 11:00:46;;;;;;;2.80;1.70;;;;;;;24.50;50.35;94796.06;5011926;28;20202;-89
2023/07/13 11:03:18;;;;;;;2.85;1.60;;;;;;;24.34;50.12;94783.09;5014745;28;20195;-88
2023/07/13 11:05:51;;;;;;;5.57;2.20;;;;;;;24.42;51.21;94832.50;5039006;28;20222;-88
2023/07/13 11:08:22;;;;;;;2.88;1.80;;;;;;;24.51;51.22;94847.63;5033712;28;20218;-89
2023/07/13 11:10:55;;;;;;;5.78;2.17;;;;;;;24.56;51.53;94860.75;5010876;28;20207;-89
2023/07/13 11:13:43;;;;;;;2.63;1.50;;;;;;;24.55;49.02;94730.97;5010630;28;20290;-90
2023/07/13 11:16:35;;;;;;;2.97;1.70;;;;;;;24.62;48.27;94691.94;5011261;28;20198;-89
2023/07/13 11:19:27;;;;;;;4.05;1.75;;;;;;;24.60;48.57;94725.66;5011786;28;20195;-90
2023/07/13 11:22:12;;;;;;;4.38;1.95;;;;;;;24.70;47.47;94656.25;5006889;28;20222;-89
2023/07/13 11:25:00;;;;;;;1.92;1.27;;;;;;;24.69;48.49;94700.22;4994067;28;20250;-91
2023/07/13 11:27:40;;;;;;;2.65;1.55;;;;;;;24.71;48.77;94736.81;5011589;28;20230;-89
2023/07/13 11:30:22;;;;;;;4.90;1.67;;;;;;;25.03;48.05;94699.19;5011904;28;20202;-89
2023/07/13 11:32:52;;;;;;;3.45;1.60;;;;;;;25.51;45.98;94588.19;5010446;28;20228;-89
2023/07/13 11:35:24;;;;;;;2.38;1.67;;;;;;;25.81;44.60;94505.84;5010994;28;20318;-90
2023/07/13 11:37:52;;;;;;;2.22;1.50;;;;;;;25.71;45.56;94514.78;5007686;28;20247;-90
2023/07/13 11:40:19;;;;;;;2.53;1.50;;;;;;;25.77;44.79;94500.41;5005597;28;20203;-89